Strona główna
METAR-TAF:

METAR-TAF

Lotnisko :

Port lotniczy Londyn-City

Londyn, Anglia

Szerokość geograficzna: 51-30N, Długość geograficzna: 000-03E, wysokość: 5 m

Aktualna obserwacja pogody

Raport powstał 21 minut temu, godzina 14:20 UTC
Wiatr 11 kt od północny wschód w porywach dochodzący do 21 kt, zmienny między zachodnio-północny zachód i wschodnio-południowy wschód
Temperatura 10°C
Wilgotność 57%
Ciśnienie 1030 hPa
Widzialność 10 km lub więcej
Przerywane chmury na wysokości 3300 ft
Zachmurzenie całkowite na wysokości 4800 ft

METAR: EGLC 281420Z AUTO 04011G21KT 300V110 9999 BKN033 OVC048 10/02 Q1030

czas: 14:41 (14:41 UTC)


TAF: brakujący

Obserwacja i prognoza pogody dla ponad 4000 lotnisk (raport METAR i TAF).

Dostępne stacje oznaczono żółtymi i czerwonymi punktami na mapie.

Najedź kursorem aby zobaczyć nazwę stacji.

Kliknij aby zobaczyć obserwacje i prognozy pogody.

Aby zmienić mapę: kliknij na zielony przycisk z czarnym krzyżykiem, aby powiększyć; na zielony przycisk z myślnikiem, aby pomniejszyć; na zielone strzałki, aby przejść do map sąsiednich.


METAR-TAF: